Time;durP1;ratioP1;P1;durP2;ratioP2;P2;SDS_P1;SDS_P2;PMS_P1;PMS_P2;Temp;Humidity;BMP_temperature;BMP_pressure;BME280_temperature;BME280_humidity;BME280_pressure;Samples;Min_cycle;Max_cycle;Signal;HPM_P1;HPM_P2
2023/09/28 00:03:04;;;;;;;6.55;3.22;;;;;;;22.55;41.71;100039.88;4384790;32;33901;-76
2023/09/28 00:05:32;;;;;;;6.65;3.28;;;;;;;22.54;41.65;100040.91;4384325;32;34945;-75
2023/09/28 00:08:18;;;;;;;6.45;3.85;;;;;;;22.50;42.03;100041.44;4384457;32;35512;-75
2023/09/28 00:10:46;;;;;;;9.80;4.00;;;;;;;22.36;42.02;100051.31;4390621;32;35261;-75
2023/09/28 00:13:14;;;;;;;5.85;2.75;;;;;;;22.44;41.75;100047.66;4386116;32;34075;-76
2023/09/28 00:15:41;;;;;;;7.80;3.58;;;;;;;22.39;41.65;100048.22;4384160;32;33835;-77
2023/09/28 00:18:09;;;;;;;5.20;3.15;;;;;;;22.28;41.45;100035.88;4387699;32;33163;-77
2023/09/28 00:20:37;;;;;;;15.88;3.62;;;;;;;22.41;41.19;100035.25;4402289;32;35035;-76
2023/09/28 00:23:05;;;;;;;7.32;3.15;;;;;;;22.46;41.03;100040.13;4388271;32;34102;-73
2023/09/28 00:25:33;;;;;;;9.10;4.12;;;;;;;22.48;40.92;100038.09;4386946;32;34126;-73
2023/09/28 00:28:00;;;;;;;6.15;3.50;;;;;;;22.53;41.12;100036.47;4387658;32;33387;-73
2023/09/28 00:30:28;;;;;;;11.12;3.80;;;;;;;22.52;41.49;100034.78;4384108;32;33802;-72
2023/09/28 00:32:56;;;;;;;5.72;3.28;;;;;;;22.45;42.38;100033.84;4389826;32;32917;-72
2023/09/28 00:35:26;;;;;;;8.68;3.55;;;;;;;22.34;42.67;100039.72;4386618;32;33957;-71
2023/09/28 00:37:54;;;;;;;5.32;3.05;;;;;;;22.17;42.51;100030.84;4384306;32;34462;-73
2023/09/28 00:42:52;;;;;;;5.90;3.53;;;;;;;21.89;42.96;100038.69;4385742;32;34332;-73
2023/09/28 00:45:21;;;;;;;4.30;2.72;;;;;;;21.82;43.06;100040.44;4389275;32;34006;-74
2023/09/28 00:48:15;;;;;;;4.72;2.55;;;;;;;21.64;43.68;100032.56;4375504;32;33753;-74
2023/09/28 00:50:43;;;;;;;7.57;3.80;;;;;;;21.57;43.74;100028.84;4330615;33;34553;-76
2023/09/28 00:53:12;;;;;;;6.82;3.12;;;;;;;21.48;43.88;100029.94;4340959;32;33766;-76
2023/09/28 00:55:40;;;;;;;5.70;3.22;;;;;;;21.44;43.96;100031.28;4338939;32;35117;-76
2023/09/28 00:58:10;;;;;;;7.07;4.10;;;;;;;21.47;43.89;100034.50;4342880;32;32989;-75
2023/09/28 01:00:40;;;;;;;6.57;3.05;;;;;;;21.42;44.27;100033.37;4344229;32;35029;-76
2023/09/28 01:03:08;;;;;;;7.80;3.30;;;;;;;21.35;44.92;100036.78;4343274;32;34077;-76
2023/09/28 01:05:40;;;;;;;6.95;2.85;;;;;;;21.30;45.29;100038.31;4337959;32;34833;-75
2023/09/28 01:08:14;;;;;;;8.00;2.47;;;;;;;21.26;45.00;100037.81;4341188;32;33927;-76
2023/09/28 01:10:43;;;;;;;4.28;2.70;;;;;;;21.21;45.00;100033.91;4340738;32;33885;-75
2023/09/28 01:13:15;;;;;;;4.47;2.87;;;;;;;21.11;45.16;100037.69;4333113;32;34861;-76
2023/09/28 01:16:02;;;;;;;8.45;3.97;;;;;;;21.05;45.41;100032.94;4330810;32;34794;-75
2023/09/28 01:18:30;;;;;;;4.37;2.15;;;;;;;20.97;45.58;100035.72;4343161;32;34654;-76
2023/09/28 01:20:58;;;;;;;6.32;3.83;;;;;;;20.94;45.59;100030.63;4347480;32;33478;-76
2023/09/28 01:23:26;;;;;;;5.57;3.08;;;;;;;20.88;45.91;100024.00;4331126;33;33697;-75
2023/09/28 01:26:13;;;;;;;7.35;4.03;;;;;;;20.81;46.11;100033.87;4340367;32;36170;-75
2023/09/28 01:28:41;;;;;;;8.05;3.90;;;;;;;20.78;46.12;100025.22;4380166;32;33410;-76
2023/09/28 01:31:08;;;;;;;5.75;3.22;;;;;;;20.70;46.27;100029.66;4385675;32;34496;-76
2023/09/28 01:33:37;;;;;;;6.18;3.45;;;;;;;20.64;46.24;100027.66;4389296;32;34643;-76
2023/09/28 01:36:05;;;;;;;7.28;2.60;;;;;;;20.50;46.51;100032.88;4390114;32;35416;-76
2023/09/28 01:38:43;;;;;;;3.72;2.55;;;;;;;20.49;46.49;100023.87;4388659;32;33219;-76
2023/09/28 01:41:11;;;;;;;3.80;2.17;;;;;;;20.30;47.02;100030.53;4380355;32;33665;-76
2023/09/28 01:43:39;;;;;;;6.30;2.75;;;;;;;20.29;46.98;100026.13;4391036;32;34892;-76
2023/09/28 01:46:07;;;;;;;9.38;3.08;;;;;;;20.13;47.29;100029.69;4391196;32;33945;-76
2023/09/28 01:48:34;;;;;;;7.40;3.10;;;;;;;20.13;47.31;100043.28;4391396;32;33606;-76
2023/09/28 01:51:03;;;;;;;6.35;3.25;;;;;;;20.10;47.46;100046.34;4376327;32;33622;-75
2023/09/28 01:53:31;;;;;;;4.00;2.42;;;;;;;20.06;47.69;100047.66;4387757;32;34964;-76
2023/09/28 01:56:01;;;;;;;3.75;2.37;;;;;;;20.10;47.67;100046.34;4388000;32;33648;-75
2023/09/28 01:58:30;;;;;;;3.67;2.28;;;;;;;20.11;47.69;100044.47;4375409;32;33742;-76
2023/09/28 02:00:57;;;;;;;8.32;2.95;;;;;;;20.16;47.68;100045.66;4389791;32;33511;-75
2023/09/28 02:03:25;;;;;;;10.93;4.65;;;;;;;20.11;47.88;100044.47;4380245;32;33581;-74
2023/09/28 02:05:53;;;;;;;5.40;3.45;;;;;;;20.14;47.73;100046.84;4387325;32;32614;-75
2023/09/28 02:08:20;;;;;;;5.45;3.10;;;;;;;20.15;47.63;100041.22;4345057;32;33349;-75
2023/09/28 02:10:48;;;;;;;6.62;3.42;;;;;;;20.23;47.51;100043.09;4355331;32;34747;-73
2023/09/28 02:13:16;;;;;;;4.82;2.40;;;;;;;20.12;47.67;100040.72;4356039;32;34343;-74
2023/09/28 02:15:44;;;;;;;9.93;3.65;;;;;;;20.23;47.32;100040.37;4358078;32;34005;-73
2023/09/28 02:18:11;;;;;;;9.38;3.25;;;;;;;20.19;47.63;100033.56;4347793;32;33390;-74
2023/09/28 02:20:39;;;;;;;4.22;2.40;;;;;;;20.25;47.41;100032.91;4354760;32;33909;-74
2023/09/28 02:23:09;;;;;;;4.97;3.53;;;;;;;20.32;47.37;100038.50;4357902;32;34827;-73
2023/09/28 02:25:37;;;;;;;6.10;3.60;;;;;;;20.33;47.52;100042.94;4356741;32;34005;-74
2023/09/28 02:28:05;;;;;;;3.03;1.87;;;;;;;20.31;47.31;100047.69;4355389;32;33351;-75
2023/09/28 02:30:33;;;;;;;6.55;2.90;;;;;;;20.22;47.67;100044.97;4357536;32;33921;-74
2023/09/28 02:33:01;;;;;;;6.68;3.22;;;;;;;20.29;47.39;100049.72;4357652;32;33805;-74
2023/09/28 02:35:30;;;;;;;7.20;3.78;;;;;;;20.27;47.46;100046.34;4353747;32;34412;-74
2023/09/28 02:37:58;;;;;;;6.78;3.58;;;;;;;20.30;47.44;100049.56;4355327;32;33512;-74
2023/09/28 02:40:25;;;;;;;5.55;3.00;;;;;;;20.28;47.43;100045.31;4386356;32;33540;-73
2023/09/28 02:42:53;;;;;;;8.75;3.20;;;;;;;20.31;47.47;100047.69;4389916;32;34073;-73
2023/09/28 02:45:21;;;;;;;8.35;2.75;;;;;;;20.40;47.23;100052.94;4388926;32;34234;-73
2023/09/28 02:47:49;;;;;;;16.65;5.43;;;;;;;20.43;47.15;100043.59;4387971;32;33616;-73
2023/09/28 02:50:17;;;;;;;4.37;2.90;;;;;;;20.42;47.12;100044.63;4386344;32;35016;-73
2023/09/28 02:52:49;;;;;;;6.07;3.08;;;;;;;20.52;46.85;100045.34;4390094;32;33719;-73
2023/09/28 02:55:17;;;;;;;5.97;2.67;;;;;;;20.57;46.88;100044.81;4374785;32;35224;-73
2023/09/28 02:57:47;;;;;;;8.40;3.80;;;;;;;20.60;46.88;100037.16;4389444;32;33191;-74
2023/09/28 03:02:46;;;;;;;6.80;4.00;;;;;;;20.58;47.27;100046.53;4394837;32;33823;-74
2023/09/28 03:05:16;;;;;;;6.47;3.62;;;;;;;20.54;47.43;100040.56;4389044;32;33660;-72
2023/09/28 03:07:45;;;;;;;5.93;2.95;;;;;;;20.49;47.38;100042.91;4389158;32;33945;-72
2023/09/28 03:10:31;;;;;;;4.03;2.60;;;;;;;20.49;47.11;100045.62;4386077;32;34673;-70
2023/09/28 03:12:59;;;;;;;3.65;2.62;;;;;;;20.45;47.34;100039.69;4390263;32;33697;-69
2023/09/28 03:15:28;;;;;;;8.05;4.40;;;;;;;20.43;47.40;100040.87;4389456;32;33983;-69
2023/09/28 03:18:16;;;;;;;6.85;3.35;;;;;;;20.25;47.47;100043.75;4389148;32;34008;-69
2023/09/28 03:20:48;;;;;;;4.57;3.03;;;;;;;20.14;47.65;100036.81;4373561;32;34523;-69
2023/09/28 03:23:15;;;;;;;5.97;3.50;;;;;;;20.09;48.28;100038.34;4374375;32;33610;-69
2023/09/28 03:26:02;;;;;;;6.80;3.92;;;;;;;20.11;48.37;100047.19;4389969;32;34931;-71
2023/09/28 03:28:30;;;;;;;11.20;6.15;;;;;;;20.12;48.21;100043.44;4393053;32;33668;-71
2023/09/28 03:30:58;;;;;;;10.52;4.72;;;;;;;19.99;48.65;100043.94;4386672;32;34739;-70
2023/09/28 03:33:25;;;;;;;3.67;2.22;;;;;;;19.87;48.78;100058.84;4389275;32;33717;-70
2023/09/28 03:35:53;;;;;;;6.90;3.55;;;;;;;19.81;48.51;100045.94;4389521;32;33841;-70
2023/09/28 03:38:21;;;;;;;7.53;4.30;;;;;;;19.72;48.64;100064.09;4389972;32;35000;-70
2023/09/28 03:40:49;;;;;;;6.28;3.30;;;;;;;19.68;48.73;100063.59;4390956;32;34252;-70
2023/09/28 03:43:17;;;;;;;5.50;3.30;;;;;;;19.55;49.10;100063.19;4386719;32;33550;-71
2023/09/28 03:45:44;;;;;;;6.03;4.07;;;;;;;19.51;49.22;100067.22;4390505;32;34218;-68
2023/09/28 03:48:12;;;;;;;15.63;6.90;;;;;;;19.54;49.17;100070.44;4389932;32;33459;-72
2023/09/28 03:50:39;;;;;;;11.63;7.22;;;;;;;19.47;49.42;100071.28;4388038;32;34367;-72
2023/09/28 03:53:07;;;;;;;4.43;2.47;;;;;;;19.36;49.87;100063.41;4388632;32;34172;-73
2023/09/28 03:55:35;;;;;;;6.65;3.40;;;;;;;19.43;49.83;100067.19;4388864;32;34028;-73
2023/09/28 03:58:03;;;;;;;6.45;3.00;;;;;;;19.38;50.03;100072.25;4393455;32;34515;-73
2023/09/28 04:00:30;;;;;;;5.55;2.67;;;;;;;19.44;49.88;100077.87;4385158;32;33436;-77
2023/09/28 04:02:59;;;;;;;6.05;3.62;;;;;;;19.48;49.90;100068.38;4389535;32;34014;-75
2023/09/28 04:05:27;;;;;;;10.20;7.00;;;;;;;19.30;50.28;100067.66;4388859;32;34076;-70
2023/09/28 04:08:13;;;;;;;5.32;2.87;;;;;;;19.25;50.38;100070.84;4377739;32;34109;-70
2023/09/28 04:10:41;;;;;;;5.47;3.12;;;;;;;19.38;50.08;100074.97;4381850;32;34639;-70
2023/09/28 04:13:09;;;;;;;8.57;3.10;;;;;;;19.45;49.95;100074.13;4389675;32;33837;-69
2023/09/28 04:15:37;;;;;;;15.98;2.85;;;;;;;19.49;49.89;100069.25;4388299;32;34205;-70
2023/09/28 04:18:04;;;;;;;7.93;3.90;;;;;;;19.54;49.80;100069.59;4389549;32;33426;-70
2023/09/28 04:20:32;;;;;;;8.90;3.55;;;;;;;19.52;49.88;100069.78;4387707;32;33737;-69
2023/09/28 04:23:18;;;;;;;3.92;2.45;;;;;;;19.53;49.83;100073.34;4389192;32;34996;-69
2023/09/28 04:25:47;;;;;;;3.80;2.47;;;;;;;19.54;49.90;100072.31;4387192;32;35103;-70
2023/09/28 04:28:15;;;;;;;4.20;2.83;;;;;;;19.55;49.81;100077.59;4390683;32;34505;-71
2023/09/28 04:30:43;;;;;;;3.33;2.40;;;;;;;19.54;49.66;100083.16;4388780;32;34628;-70
2023/09/28 04:33:11;;;;;;;6.43;2.85;;;;;;;19.55;49.58;100074.03;4385854;32;35006;-73
2023/09/28 04:35:38;;;;;;;4.55;2.75;;;;;;;19.55;49.52;100077.59;4383814;32;34742;-72
2023/09/28 04:38:07;;;;;;;14.23;6.55;;;;;;;19.52;49.53;100077.91;4387165;32;33707;-72
2023/09/28 04:40:36;;;;;;;10.68;5.87;;;;;;;19.52;49.77;100085.22;4388550;32;33448;-72
2023/09/28 04:43:04;;;;;;;12.55;7.00;;;;;;;19.46;49.84;100083.16;4388327;32;35003;-72
2023/09/28 04:45:33;;;;;;;9.80;5.62;;;;;;;19.40;49.91;100087.38;4388208;32;35153;-73
2023/09/28 04:48:01;;;;;;;8.98;5.22;;;;;;;19.46;49.67;100084.00;4384788;32;33608;-73
2023/09/28 04:50:29;;;;;;;4.22;2.95;;;;;;;19.42;49.73;100096.22;4385642;32;35448;-73
2023/09/28 04:52:56;;;;;;;10.38;6.37;;;;;;;19.46;49.59;100085.88;4388930;32;35235;-69
2023/09/28 04:55:24;;;;;;;4.57;2.62;;;;;;;19.44;49.66;100098.75;4388639;32;33913;-70
2023/09/28 04:58:10;;;;;;;5.97;3.05;;;;;;;19.42;49.54;100087.19;4393383;32;34226;-70
2023/09/28 05:00:38;;;;;;;4.65;2.62;;;;;;;19.21;50.17;100093.91;4393183;32;33828;-73
2023/09/28 05:03:06;;;;;;;6.03;2.15;;;;;;;19.20;49.99;100096.78;4387685;32;35109;-70
2023/09/28 05:05:34;;;;;;;5.70;3.58;;;;;;;19.20;50.27;100102.22;4387519;32;35240;-71
2023/09/28 05:08:02;;;;;;;4.90;3.40;;;;;;;19.17;50.56;100099.81;4386724;32;33208;-70
2023/09/28 05:10:30;;;;;;;10.60;3.17;;;;;;;19.33;50.31;100099.06;4389528;32;34750;-71
2023/09/28 05:12:58;;;;;;;4.68;3.45;;;;;;;19.42;50.07;100103.47;4384585;32;34653;-70
2023/09/28 05:15:26;;;;;;;4.25;2.15;;;;;;;19.44;50.04;100104.19;4386500;32;33804;-70
2023/09/28 05:18:12;;;;;;;4.35;2.42;;;;;;;19.46;50.07;100102.16;4387151;32;33260;-70
2023/09/28 05:20:40;;;;;;;5.72;3.00;;;;;;;19.37;50.68;100101.25;4384635;32;33554;-72
2023/09/28 05:23:09;;;;;;;8.50;3.17;;;;;;;19.51;50.32;100107.94;4384092;32;33969;-72
2023/09/28 05:25:37;;;;;;;7.60;3.37;;;;;;;19.60;50.29;100106.09;4384246;32;34960;-72
2023/09/28 05:28:05;;;;;;;11.85;7.22;;;;;;;19.67;50.18;100107.19;4391634;32;33747;-70
2023/09/28 05:30:33;;;;;;;5.93;3.15;;;;;;;19.62;50.25;100110.38;4396425;32;34064;-73
2023/09/28 05:33:04;;;;;;;11.00;4.20;;;;;;;19.77;50.14;100116.03;4384687;32;35328;-71
2023/09/28 05:35:32;;;;;;;8.73;4.30;;;;;;;19.85;49.88;100115.22;4378899;32;34571;-71
2023/09/28 05:37:59;;;;;;;5.93;3.15;;;;;;;19.89;49.78;100119.28;4387704;32;34673;-71
2023/09/28 05:40:27;;;;;;;5.97;4.05;;;;;;;19.94;49.77;100125.94;4382187;32;32321;-72
2023/09/28 05:42:54;;;;;;;6.82;2.85;;;;;;;20.01;49.68;100118.81;4390738;32;33614;-72
2023/09/28 05:45:22;;;;;;;8.20;4.00;;;;;;;19.98;50.08;100121.03;4390950;32;35116;-73
2023/09/28 05:47:50;;;;;;;11.98;4.00;;;;;;;20.05;49.93;100122.06;4391868;32;33489;-73
2023/09/28 05:50:18;;;;;;;8.35;4.12;;;;;;;20.12;49.92;100119.50;4391837;32;33693;-73
2023/09/28 05:52:48;;;;;;;6.05;3.62;;;;;;;20.15;49.94;100120.03;4364462;32;35000;-72
2023/09/28 05:55:16;;;;;;;4.50;2.65;;;;;;;20.22;49.99;100117.47;4356289;32;33602;-71
2023/09/28 05:57:43;;;;;;;5.68;3.10;;;;;;;20.31;49.97;100121.91;4357644;32;33221;-71
2023/09/28 06:00:30;;;;;;;9.90;4.55;;;;;;;20.36;50.00;100119.56;4357619;32;34611;-73
2023/09/28 06:02:58;;;;;;;9.20;4.65;;;;;;;20.36;50.07;100126.88;4356509;32;33860;-70
2023/09/28 06:05:26;;;;;;;9.27;5.68;;;;;;;20.44;50.02;100124.97;4359555;32;33842;-71
2023/09/28 06:07:54;;;;;;;7.95;5.55;;;;;;;20.57;49.93;100123.66;4357819;32;34119;-71
2023/09/28 06:10:22;;;;;;;11.45;5.55;;;;;;;20.68;50.05;100126.06;4358074;32;32508;-71
2023/09/28 06:12:49;;;;;;;9.02;4.68;;;;;;;20.84;49.65;100125.19;4356105;32;34059;-70
2023/09/28 06:15:17;;;;;;;7.05;3.05;;;;;;;20.96;49.64;100133.81;4355943;32;33810;-71
2023/09/28 06:17:44;;;;;;;5.15;2.50;;;;;;;21.10;49.38;100131.25;4358904;32;34455;-71
2023/09/28 06:20:12;;;;;;;8.82;4.30;;;;;;;21.21;49.28;100135.47;4355822;32;33761;-70
2023/09/28 06:22:40;;;;;;;7.25;4.65;;;;;;;21.22;49.06;100131.75;4350926;32;33579;-71
2023/09/28 06:25:08;;;;;;;8.80;4.85;;;;;;;21.40;48.43;100132.37;4382609;32;34088;-70
2023/09/28 06:27:37;;;;;;;12.60;5.15;;;;;;;21.49;48.02;100135.94;4388000;32;33587;-71
2023/09/28 06:30:23;;;;;;;5.55;3.50;;;;;;;21.55;48.07;100127.06;4386005;32;34717;-70
2023/09/28 06:32:51;;;;;;;6.90;3.85;;;;;;;21.67;47.86;100132.13;4382961;32;35483;-70
2023/09/28 06:35:19;;;;;;;5.12;3.45;;;;;;;21.77;47.93;100130.88;4384215;32;33491;-70
2023/09/28 06:37:46;;;;;;;7.35;4.28;;;;;;;21.84;48.12;100131.03;4388898;32;33709;-71
2023/09/28 06:40:15;;;;;;;8.60;3.42;;;;;;;21.55;48.20;100135.25;4389638;32;33558;-74
2023/09/28 06:42:42;;;;;;;11.02;3.67;;;;;;;21.37;48.79;100137.34;4388014;32;33722;-72
2023/09/28 06:45:11;;;;;;;5.78;3.10;;;;;;;21.71;47.36;100137.03;4390920;32;33816;-71
2023/09/28 06:47:39;;;;;;;7.90;4.75;;;;;;;21.84;47.26;100136.47;4386896;32;34085;-72
2023/09/28 06:50:29;;;;;;;12.07;4.50;;;;;;;21.69;47.89;100139.09;4388676;32;34728;-72
2023/09/28 06:52:57;;;;;;;8.70;4.00;;;;;;;22.02;47.37;100134.34;4387532;32;35854;-73
2023/09/28 06:55:24;;;;;;;8.20;4.53;;;;;;;22.00;47.41;100143.72;4388713;32;34903;-72
2023/09/28 06:57:52;;;;;;;5.82;3.50;;;;;;;22.00;47.40;100143.72;4387130;32;34402;-72
2023/09/28 07:00:20;;;;;;;6.70;3.55;;;;;;;22.06;46.95;100137.56;4389655;32;34781;-72
2023/09/28 07:02:48;;;;;;;7.22;3.80;;;;;;;22.12;47.21;100144.12;4384941;32;104566;-72
2023/09/28 07:05:17;;;;;;;10.55;4.90;;;;;;;22.36;47.08;100137.72;4390354;32;33728;-72
2023/09/28 07:07:45;;;;;;;13.50;5.15;;;;;;;22.63;46.94;100139.03;4391280;32;33220;-73
2023/09/28 07:10:13;;;;;;;8.60;4.43;;;;;;;22.66;46.21;100144.97;4388602;32;33707;-71
2023/09/28 07:12:41;;;;;;;8.15;4.75;;;;;;;22.82;46.11;100154.88;4389979;32;35021;-70
2023/09/28 07:15:09;;;;;;;10.68;3.87;;;;;;;22.93;45.87;100153.63;4389175;32;34953;-70
2023/09/28 07:17:37;;;;;;;8.40;4.93;;;;;;;22.89;45.84;100158.59;4388705;32;33359;-70
2023/09/28 07:20:05;;;;;;;11.32;5.93;;;;;;;22.86;45.92;100156.25;4389926;32;32680;-71
2023/09/28 07:22:33;;;;;;;6.28;4.25;;;;;;;22.62;45.61;100154.56;4381921;32;33916;-71
2023/09/28 07:25:01;;;;;;;15.35;4.47;;;;;;;22.84;45.04;100157.44;4388974;32;33936;-72
2023/09/28 07:27:32;;;;;;;8.82;4.00;;;;;;;22.71;45.04;100163.53;4377010;32;33798;-73
2023/09/28 07:30:05;;;;;;;9.60;4.53;;;;;;;22.81;45.14;100166.00;4386682;32;33827;-73
2023/09/28 07:32:32;;;;;;;6.97;3.45;;;;;;;22.78;44.34;100159.03;4389820;32;34022;-73
2023/09/28 07:35:02;;;;;;;6.55;3.92;;;;;;;22.28;44.89;100165.91;4388161;32;34869;-74
2023/09/28 07:37:30;;;;;;;9.50;4.90;;;;;;;22.49;44.08;100160.62;4387415;32;35120;-73
2023/09/28 07:39:58;;;;;;;11.32;4.78;;;;;;;22.43;44.35;100158.63;4391112;32;35365;-74
2023/09/28 07:42:26;;;;;;;7.32;4.32;;;;;;;22.56;44.49;100171.66;4389359;32;33944;-73
2023/09/28 07:44:53;;;;;;;7.85;4.55;;;;;;;22.42;45.33;100170.56;4388546;32;33889;-74
2023/09/28 07:47:21;;;;;;;9.02;4.15;;;;;;;22.57;43.89;100162.47;4390728;32;34748;-74
2023/09/28 07:49:49;;;;;;;8.35;4.32;;;;;;;22.51;44.36;100171.38;4391353;32;33988;-73
2023/09/28 07:52:35;;;;;;;6.20;4.22;;;;;;;22.76;43.91;100164.69;4385804;32;34977;-73
2023/09/28 07:55:03;;;;;;;11.85;5.87;;;;;;;22.65;44.58;100175.19;4390127;32;34197;-73
2023/09/28 07:57:32;;;;;;;5.70;3.30;;;;;;;22.64;44.18;100173.47;4384606;32;33602;-73
2023/09/28 08:00:20;;;;;;;11.10;4.78;;;;;;;22.52;44.72;100167.59;4386439;32;35543;-73
2023/09/28 08:02:48;;;;;;;7.43;3.95;;;;;;;22.66;44.51;100168.69;4374812;32;33946;-73
2023/09/28 08:05:16;;;;;;;11.23;4.75;;;;;;;22.91;44.06;100167.44;4391232;32;34105;-73
2023/09/28 08:07:43;;;;;;;6.47;3.53;;;;;;;23.14;43.88;100174.75;4386087;32;33721;-73
2023/09/28 08:10:31;;;;;;;6.93;3.20;;;;;;;22.99;43.76;100175.59;4389822;32;33368;-74
2023/09/28 08:13:00;;;;;;;8.15;3.85;;;;;;;23.20;43.68;100171.28;4385683;32;34059;-74
2023/09/28 08:15:27;;;;;;;8.60;4.25;;;;;;;23.49;43.03;100173.19;4386902;32;33979;-74
2023/09/28 08:18:03;;;;;;;7.60;4.10;;;;;;;23.52;42.62;100172.81;4387237;32;34076;-74
2023/09/28 08:20:33;;;;;;;10.27;4.55;;;;;;;23.54;43.12;100172.66;4388642;32;37262;-74
2023/09/28 08:23:04;;;;;;;9.00;5.25;;;;;;;23.45;42.60;100169.16;4387230;32;35682;-74
2023/09/28 08:25:34;;;;;;;8.10;3.78;;;;;;;23.52;42.23;100178.28;4388929;32;34321;-73
2023/09/28 08:28:22;;;;;;;11.82;4.70;;;;;;;23.47;42.78;100173.41;4388250;32;34410;-72
2023/09/28 08:30:53;;;;;;;10.60;3.85;;;;;;;23.07;43.19;100179.28;4385879;32;33562;-72
2023/09/28 08:33:25;;;;;;;13.20;5.80;;;;;;;22.91;43.47;100170.16;4388238;32;33944;-73
2023/09/28 08:35:52;;;;;;;9.18;4.20;;;;;;;23.49;43.66;100174.03;4388136;32;34155;-73
2023/09/28 08:38:20;;;;;;;10.65;4.47;;;;;;;23.54;42.68;100173.50;4384364;32;34192;-73
2023/09/28 08:40:49;;;;;;;12.00;6.55;;;;;;;23.59;42.50;100168.28;4385252;32;33358;-72
2023/09/28 08:43:21;;;;;;;13.30;6.65;;;;;;;23.63;43.03;100174.25;4373785;32;34472;-72
2023/09/28 08:45:51;;;;;;;6.62;4.10;;;;;;;23.91;41.95;100169.78;4374902;32;33836;-73
2023/09/28 08:48:21;;;;;;;7.20;4.28;;;;;;;24.01;41.71;100172.22;4386578;32;33340;-71
2023/09/28 08:50:55;;;;;;;7.50;4.40;;;;;;;23.99;41.33;100168.00;4389569;32;33700;-74
2023/09/28 08:53:23;;;;;;;7.10;4.12;;;;;;;23.83;42.20;100172.66;4373622;32;33958;-79
2023/09/28 08:55:51;;;;;;;7.05;4.45;;;;;;;23.83;41.39;100169.91;4394895;32;34332;-75
2023/09/28 08:58:19;;;;;;;10.13;5.00;;;;;;;23.93;40.79;100159.53;4371400;32;33513;-76
2023/09/28 09:01:06;;;;;;;9.73;4.20;;;;;;;24.08;41.64;100166.88;4375324;32;34657;-79
2023/09/28 09:03:34;;;;;;;7.85;4.28;;;;;;;24.20;40.95;100162.56;4384392;32;32825;-77
2023/09/28 09:06:06;;;;;;;7.57;3.97;;;;;;;24.40;41.49;100160.91;4387768;32;34778;-74
2023/09/28 09:08:38;;;;;;;7.05;4.03;;;;;;;24.24;42.33;100163.03;4389039;32;33235;-75
2023/09/28 09:11:09;;;;;;;11.93;5.10;;;;;;;24.52;40.90;100154.94;4371950;32;32360;-73
2023/09/28 09:13:55;;;;;;;11.57;4.25;;;;;;;24.41;40.89;100150.84;4385447;32;34731;-73
2023/09/28 09:16:27;;;;;;;9.82;3.83;;;;;;;24.23;41.01;100156.72;4387815;32;33948;-70
2023/09/28 09:18:58;;;;;;;7.80;4.07;;;;;;;24.23;41.17;100164.91;4389496;32;34072;-70
2023/09/28 09:21:38;;;;;;;6.10;3.15;;;;;;;24.39;41.12;100159.19;4389946;32;33539;-70
2023/09/28 09:24:10;;;;;;;8.10;3.90;;;;;;;24.27;40.76;100155.31;4389488;32;34009;-70
2023/09/28 09:26:42;;;;;;;11.43;4.97;;;;;;;24.14;41.03;100153.28;4387522;32;35265;-70
2023/09/28 09:29:12;;;;;;;6.87;3.25;;;;;;;24.45;40.18;100154.88;4390504;32;33309;-71
2023/09/28 09:31:42;;;;;;;8.23;3.67;;;;;;;24.05;41.28;100157.16;4391051;32;34781;-70
2023/09/28 09:34:11;;;;;;;19.15;5.37;;;;;;;24.67;40.99;100155.72;4390919;32;34106;-76
2023/09/28 09:36:41;;;;;;;7.72;4.10;;;;;;;24.27;42.00;100155.31;4390323;32;33964;-74
2023/09/28 09:39:21;;;;;;;16.00;5.07;;;;;;;24.66;41.13;100165.00;4391575;32;34714;-68
2023/09/28 09:42:08;;;;;;;11.10;4.90;;;;;;;24.63;41.93;100157.16;4400384;32;34273;-73
2023/09/28 09:44:36;;;;;;;8.43;5.43;;;;;;;24.20;42.56;100164.47;4390993;32;35351;-71
2023/09/28 09:47:04;;;;;;;7.95;4.15;;;;;;;24.38;41.75;100153.94;4388643;32;35153;-73
2023/09/28 09:49:33;;;;;;;16.35;5.12;;;;;;;24.49;41.68;100158.06;4387926;32;33165;-71
2023/09/28 09:52:05;;;;;;;15.30;4.68;;;;;;;24.75;40.93;100157.47;4390519;32;33839;-73
2023/09/28 09:54:34;;;;;;;7.65;4.72;;;;;;;24.89;40.90;100159.28;4390504;32;33978;-73
2023/09/28 09:57:03;;;;;;;10.45;4.10;;;;;;;24.70;41.54;100158.06;4375149;32;34142;-72
2023/09/28 09:59:31;;;;;;;9.23;4.60;;;;;;;24.63;41.62;100149.81;4388369;32;32966;-72
2023/09/28 10:02:00;;;;;;;8.73;5.37;;;;;;;24.88;41.23;100160.34;4370339;32;33974;-72
2023/09/28 10:04:47;;;;;;;11.63;5.37;;;;;;;24.66;41.66;100156.78;4367806;32;34620;-71
2023/09/28 10:07:16;;;;;;;8.88;4.95;;;;;;;25.04;41.00;100153.69;4372743;32;33813;-72
2023/09/28 10:09:43;;;;;;;10.80;6.50;;;;;;;25.30;40.47;100156.69;4375485;32;33133;-72
2023/09/28 10:12:12;;;;;;;8.68;3.95;;;;;;;25.03;40.69;100144.66;4375367;32;34854;-73
2023/09/28 10:14:41;;;;;;;11.38;5.05;;;;;;;25.15;40.54;100150.47;4385101;32;34061;-74
2023/09/28 10:17:11;;;;;;;9.38;4.90;;;;;;;25.69;39.24;100148.91;4388385;32;35756;-73
2023/09/28 10:19:39;;;;;;;7.72;4.47;;;;;;;25.71;40.08;100147.62;4388569;32;34364;-73
2023/09/28 10:22:11;;;;;;;10.52;5.82;;;;;;;26.02;39.69;100141.66;4373901;32;34768;-73
2023/09/28 10:24:39;;;;;;;8.95;6.05;;;;;;;26.15;38.93;100146.34;4384486;32;34115;-74
2023/09/28 10:27:10;;;;;;;8.20;4.43;;;;;;;25.95;39.39;100138.06;4387273;32;34294;-74
2023/09/28 10:30:16;;;;;;;8.63;4.80;;;;;;;26.25;38.93;100140.47;4381919;32;35330;-73
2023/09/28 10:32:45;;;;;;;11.20;5.82;;;;;;;26.18;38.54;100145.94;4391731;32;35547;-73
2023/09/28 10:35:19;;;;;;;11.95;6.12;;;;;;;26.17;38.75;100141.53;4387114;32;32931;-73
2023/09/28 10:38:22;;;;;;;12.25;4.80;;;;;;;25.94;38.95;100133.66;4389325;32;33711;-74
2023/09/28 10:40:57;;;;;;;9.18;3.70;;;;;;;26.43;38.27;100137.16;4386904;32;35319;-75
2023/09/28 10:43:43;;;;;;;11.12;5.60;;;;;;;26.58;37.87;100137.84;4386692;32;34294;-74
2023/09/28 10:46:12;;;;;;;6.65;3.83;;;;;;;26.41;38.42;100139.25;4388922;32;35544;-75
2023/09/28 10:48:44;;;;;;;12.90;5.50;;;;;;;26.30;38.32;100137.12;4380972;32;33700;-74
2023/09/28 10:51:15;;;;;;;9.73;5.10;;;;;;;26.68;38.19;100127.28;4383562;32;33220;-73
2023/09/28 10:53:44;;;;;;;14.35;5.80;;;;;;;26.85;37.33;100124.09;4387872;32;34081;-75
2023/09/28 10:56:12;;;;;;;14.80;4.95;;;;;;;26.90;36.64;100127.91;4384650;32;34085;-72
2023/09/28 10:58:43;;;;;;;7.95;4.07;;;;;;;26.67;37.34;100131.06;4385584;32;34897;-74
2023/09/28 11:01:11;;;;;;;8.23;4.45;;;;;;;26.27;37.95;100123.81;4384476;32;32539;-76
2023/09/28 11:03:39;;;;;;;9.13;5.87;;;;;;;26.90;36.88;100130.66;4385802;32;33768;-77
2023/09/28 11:06:09;;;;;;;8.23;4.75;;;;;;;26.68;37.23;100127.28;4386650;32;33654;-78
2023/09/28 11:08:38;;;;;;;6.80;4.45;;;;;;;26.76;36.97;100120.72;4343040;32;34134;-77
2023/09/28 11:11:05;;;;;;;9.48;4.72;;;;;;;27.01;35.54;100129.16;4352400;32;33749;-74
2023/09/28 11:13:34;;;;;;;8.05;5.68;;;;;;;27.23;35.78;100115.22;4354350;32;33333;-75
2023/09/28 11:16:02;;;;;;;8.35;4.82;;;;;;;27.07;36.10;100121.97;4363142;32;34920;-74
2023/09/28 11:18:30;;;;;;;13.80;6.37;;;;;;;27.36;35.12;100120.69;4353992;32;34014;-76
2023/09/28 11:20:58;;;;;;;7.60;4.18;;;;;;;26.83;36.11;100115.22;4326212;33;34355;-77
2023/09/28 11:23:27;;;;;;;12.00;5.10;;;;;;;27.01;34.89;100112.69;4326788;33;33851;-74
2023/09/28 11:25:55;;;;;;;8.88;3.85;;;;;;;27.19;35.11;100106.53;4321127;33;33977;-73
2023/09/28 11:28:42;;;;;;;10.27;5.20;;;;;;;27.47;34.67;100102.69;4327394;33;35758;-76
2023/09/28 11:31:12;;;;;;;12.68;6.37;;;;;;;27.47;35.61;100108.19;4325593;33;33372;-77
2023/09/28 11:33:42;;;;;;;10.57;5.00;;;;;;;27.22;35.55;100105.28;4326452;33;33627;-76
2023/09/28 11:36:16;;;;;;;10.77;4.50;;;;;;;27.51;34.56;100107.53;4325229;33;35118;-76
2023/09/28 11:38:47;;;;;;;;;;;;;;;27.31;34.04;100099.34;4327348;32;33668;-77
2023/09/28 11:41:15;;;;;;;13.50;4.72;;;;;;;27.87;33.13;100084.16;4355579;32;34304;-77
2023/09/28 11:44:02;;;;;;;8.70;4.43;;;;;;;27.45;34.40;100100.16;4328952;33;35402;-76
2023/09/28 11:46:32;;;;;;;8.30;4.87;;;;;;;27.78;35.02;100088.22;4332140;32;34842;-77